Terminal Aerodrome Forecast
Issued by NWS Pocatello, ID

Home | Current Version | Previous Version | Text Only | Print | Product List | Glossary On
Versions: 1 2 3 4 5 6 7 8 9 10 11 12 13 14 15 16 17
000
FTUS45 KPIH 132336
TAFIDA
TAF
KIDA 132336Z 1400/1424 20005KT 5SM BR VCSH SCT015 OVC060
     FM140400 36005KT 6SM BR FEW002
     FM140700 36003KT 3/4SM BR BKN002
     FM141700 30004KT 4SM BR SCT002 OVC015=

USA.gov is the U.S. government's official web portal to all federal, state and local government web resources and services.